Latest Coastal Weather Observations for Gannett Cay

IDQ60701

Issued at 5:52 am EST Thursday 23 May 2024 (issued every 10 minutes, with the page automatically refreshed every 10 minutes)

About coastal observations | Map of coastal stations | Coastal observations for QLD | Marine services | Other Formats
Station Details ID: 200831 Name: GANNET CAY Lat: -21.98 Lon: 152.47 Height: 2.3 m
Data from the previous 72 hours. | See also: Recent months for locations in Queensland
Date/Time
EST
Wind Sea
Height
m
Swell Vis
km
Cloud Weather Temp
°C
Press
MSL
hPa
Rain since
9am
mm
Dir  Spd
kts
Gust
kts
Height
m
Period
s
Dir
23/05:30am ESE 19 22 - - - - - - - 23.4 1018.6 -
23/05:00am ESE 19 21 - - - - - - - 23.2 1018.2 -
23/04:30am SE 19 24 - - - - - - - 23.4 1018.1 -
23/04:00am ESE 21 25 - - - - - - - 23.5 1018.1 -
23/03:30am ESE 22 27 - - - - - - - 23.1 1018.2 -
23/03:00am ESE 19 23 - - - - - - - 23.4 1018.3 -
23/02:30am SE 17 20 - - - - - - - 23.3 1018.5 -
23/02:00am SE 22 27 - - - - - - - 22.9 1018.7 -
23/01:30am SE 24 28 - - - - - - - 22.5 1018.9 -
23/01:07am S 17 28 - - - - - - - 22.3 1019.1 -
23/01:00am S 19 26 - - - - - - - 22.0 1019.1 -
23/12:30am SSE 21 25 - - - - - - - 22.5 1019.0 -
23/12:05am SE 18 28 - - - - - - - 22.0 1019.2 -
23/12:04am SE 17 28 - - - - - - - 22.1 1019.3 -
23/12:00am ESE 15 17 - - - - - - - 23.4 1019.2 -
 
Date/Time
EST
Wind Sea
Height
m
Swell Vis
km
Cloud Weather Temp
°C
Press
MSL
hPa
Rain since
9am
mm
Dir  Spd
kts
Gust
kts
Height
m
Period
s
Dir
22/11:30pm ESE 15 18 - - - - - - - 22.9 1019.2 -
22/11:00pm ESE 19 21 - - - - - - - 22.8 1019.3 -
22/10:30pm ESE 18 20 - - - - - - - 22.3 1019.4 -
22/10:00pm ESE 16 21 - - - - - - - 21.0 1019.7 -
22/09:30pm SE 17 19 - - - - - - - 21.4 1020.1 -
22/09:00pm SE 25 29 - - - - - - - 21.2 1020.4 -
22/08:33pm SE 21 31 - - - - - - - 21.9 1020.3 -
22/08:30pm SE 19 22 - - - - - - - 22.3 1020.2 -
22/08:00pm SE 18 20 - - - - - - - 22.2 1020.0 -
22/07:30pm SE 22 25 - - - - - - - 22.0 1019.9 -
22/07:00pm SE 25 28 - - - - - - - 22.1 1019.5 -
22/06:30pm SSE 21 25 - - - - - - - 22.9 1019.0 -
22/06:00pm SSE 13 16 - - - - - - - 23.6 1018.7 -
22/05:30pm SSE 14 16 - - - - - - - 23.7 1018.4 -
22/05:00pm SSE 15 17 - - - - - - - 23.7 1018.1 -
22/04:30pm SSE 15 17 - - - - - - - 23.7 1017.9 -
22/04:00pm SSE 14 16 - - - - - - - 24.0 1017.6 -
22/03:30pm SSE 13 16 - - - - - - - 24.4 1017.5 -
22/03:00pm SSE 11 14 - - - - - - - 24.5 1017.1 -
22/02:30pm SSE 12 14 - - - - - - - 24.1 1016.9 -
22/02:00pm SSE 12 14 - - - - - - - 24.2 1017.1 -
22/01:30pm SSE 14 17 - - - - - - - 24.0 1017.3 -
22/01:00pm SSE 11 13 - - - - - - - 24.3 1017.5 -
22/12:30pm SSE 12 15 - - - - - - - 24.2 1017.9 -
22/12:00pm SSE 12 15 - - - - - - - 24.1 1018.2 -
22/11:30am SSE 13 16 - - - - - - - 24.1 1018.8 -
22/11:00am SSE 13 16 - - - - - - - 24.1 1019.0 -
22/10:30am SSE 15 17 - - - - - - - 24.0 1019.2 -
22/10:00am SSE 15 18 - - - - - - - 24.1 1019.3 -
22/09:30am SSE 14 17 - - - - - - - 24.0 1019.4 -
22/09:00am SSE 15 17 - - - - - - - 24.0 1019.6 -
22/08:30am SSE 17 20 - - - - - - - 24.0 1019.5 -
22/08:00am SSE 16 19 - - - - - - - 23.6 1019.3 -
22/07:30am SSE 17 21 - - - - - - - 23.5 1019.1 -
22/07:00am SSE 16 19 - - - - - - - 23.3 1018.8 -
22/06:30am SSE 18 21 - - - - - - - 23.2 1018.6 -
22/06:00am SSE 17 21 - - - - - - - 23.3 1018.4 -
22/05:30am SSE 18 21 - - - - - - - 23.3 1018.1 -
22/05:00am SE 19 22 - - - - - - - 23.2 1017.7 -
22/04:30am ESE 17 19 - - - - - - - 23.3 1017.5 -
22/04:00am ESE 16 18 - - - - - - - 23.3 1017.7 -
22/03:30am ESE 16 19 - - - - - - - 23.2 1017.8 -
22/03:00am ESE 15 19 - - - - - - - 23.3 1017.8 -
22/02:30am ESE 16 18 - - - - - - - 23.6 1017.7 -
22/02:00am ESE 17 20 - - - - - - - 23.7 1017.8 -
22/01:30am ESE 17 19 - - - - - - - 23.8 1017.9 -
22/01:00am ESE 16 19 - - - - - - - 23.8 1018.4 -
22/12:30am ESE 14 17 - - - - - - - 23.8 1018.6 -
22/12:00am ESE 15 19 - - - - - - - 23.9 1018.6 -
 
Date/Time
EST
Wind Sea
Height
m
Swell Vis
km
Cloud Weather Temp
°C
Press
MSL
hPa
Rain since
9am
mm
Dir  Spd
kts
Gust
kts
Height
m
Period
s
Dir
21/11:30pm ESE 15 17 - - - - - - - 23.7 1018.8 -
21/11:00pm ESE 17 20 - - - - - - - 23.7 1018.9 -
21/10:30pm ESE 16 18 - - - - - - - 23.9 1019.3 -
21/10:00pm ESE 17 19 - - - - - - - 23.9 1019.4 -
21/09:30pm ESE 17 19 - - - - - - - 24.0 1019.6 -
21/09:00pm ESE 17 20 - - - - - - - 24.0 1019.7 -
21/08:30pm ESE 17 19 - - - - - - - 24.0 1019.5 -
21/08:00pm ESE 16 19 - - - - - - - 24.0 1019.4 -
21/07:30pm ESE 17 20 - - - - - - - 24.0 1019.2 -
21/07:00pm ESE 17 19 - - - - - - - 23.9 1018.9 -
21/06:30pm ESE 16 19 - - - - - - - 24.0 1018.5 -
21/06:00pm ESE 16 18 - - - - - - - 24.0 1018.1 -
21/05:30pm ESE 16 19 - - - - - - - 24.0 1017.8 -
21/05:00pm ESE 16 18 - - - - - - - 23.9 1017.6 -
21/04:30pm ESE 17 20 - - - - - - - 23.8 1017.1 -
21/04:00pm ESE 16 19 - - - - - - - 23.9 1016.9 -
21/03:30pm E 16 18 - - - - - - - 23.8 1016.7 -
21/03:00pm ENE 10 12 - - - - - - - 23.2 1016.7 -
21/02:30pm E 18 20 - - - - - - - 22.5 1016.7 -
21/02:00pm E 15 17 - - - - - - - 22.7 1016.9 -
21/01:30pm ENE 12 20 - - - - - - - 22.8 1017.0 -
21/01:00pm E 17 21 - - - - - - - 21.5 1017.3 -
21/12:30pm SE 14 16 - - - - - - - 22.6 1017.6 -
21/12:00pm SE 15 18 - - - - - - - 22.1 1017.9 -
21/11:30am SE 18 22 - - - - - - - 22.4 1018.3 -
21/11:00am SSE 16 19 - - - - - - - 22.5 1018.3 -
21/10:30am SE 18 22 - - - - - - - 21.9 1018.9 -
21/10:00am SE 15 18 - - - - - - - 22.7 1019.0 -
21/09:30am SE 20 24 - - - - - - - 22.3 1019.1 -
21/09:00am SE 19 22 - - - - - - - 22.8 1019.1 -
21/08:30am SE 15 17 - - - - - - - 23.4 1019.0 -
21/08:00am SE 14 17 - - - - - - - 23.0 1018.8 -
21/07:30am SE 18 20 - - - - - - - 22.9 1018.7 -
21/07:00am SSE 17 19 - - - - - - - 23.0 1018.1 -
21/06:30am SE 14 17 - - - - - - - 23.7 1018.0 -
21/06:00am SE 16 21 - - - - - - - 23.6 1017.5 -
21/05:30am SE 17 20 - - - - - - - 23.7 1017.0 -
21/05:00am SE 15 18 - - - - - - - 23.4 1016.9 -
21/04:30am SE 14 17 - - - - - - - 23.3 1016.9 -
21/04:00am SE 17 19 - - - - - - - 23.1 1016.9 -
21/03:30am SE 18 21 - - - - - - - 23.1 1016.7 -
21/03:00am SE 18 21 - - - - - - - 23.0 1016.7 -
21/02:30am SE 18 20 - - - - - - - 23.0 1016.9 -
21/02:00am SE 19 22 - - - - - - - 23.1 1017.2 -
21/01:30am ESE 21 24 - - - - - - - 23.0 1017.5 -
21/01:00am SE 20 22 - - - - - - - 22.9 1017.9 -
21/12:30am SSE 21 26 - - - - - - - 22.2 1018.1 -
21/12:00am SSE 20 23 - - - - - - - 23.3 1018.1 -
 
Date/Time
EST
Wind Sea
Height
m
Swell Vis
km
Cloud Weather Temp
°C
Press
MSL
hPa
Rain since
9am
mm
Dir  Spd
kts
Gust
kts
Height
m
Period
s
Dir
20/11:30pm SSE 21 23 - - - - - - - 23.3 1018.3 -
20/11:00pm SSE 21 24 - - - - - - - 23.4 1018.5 -
20/10:30pm SSE 21 24 - - - - - - - 23.4 1018.7 -
20/10:00pm SSE 21 24 - - - - - - - 23.5 1018.7 -
20/09:30pm SSE 21 25 - - - - - - - 23.5 1018.6 -
20/09:00pm S 21 24 - - - - - - - 23.4 1018.6 -
20/08:30pm S 20 23 - - - - - - - 23.1 1018.8 -
20/08:00pm S 21 25 - - - - - - - 23.4 1018.3 -
20/07:30pm S 20 24 - - - - - - - 23.1 1018.3 -
20/07:00pm S 19 22 - - - - - - - 23.0 1017.9 -
20/06:30pm SSE 19 23 - - - - - - - 22.9 1017.4 -
20/06:00pm SSE 18 21 - - - - - - - 23.0 1017.1 -
20/05:30pm SSE 17 20 - - - - - - - 22.9 1016.9 -
20/05:00pm S 18 22 - - - - - - - 22.9 1016.5 -
20/04:30pm S 17 20 - - - - - - - 22.8 1016.4 -
20/04:00pm S 16 20 - - - - - - - 23.2 1016.0 -
20/03:30pm SSE 15 19 - - - - - - - 23.2 1015.9 -
20/03:00pm S 16 19 - - - - - - - 23.2 1015.6 -
20/02:30pm S 17 21 - - - - - - - 23.1 1015.5 -
20/02:00pm S 16 20 - - - - - - - 23.2 1015.4 -
20/01:30pm S 17 20 - - - - - - - 23.4 1015.7 -
20/01:00pm SSE 17 21 - - - - - - - 23.1 1015.9 -
20/12:30pm SSE 18 21 - - - - - - - 23.3 1016.4 -
20/12:00pm SSE 17 20 - - - - - - - 23.5 1017.0 -
20/11:30am SSE 17 20 - - - - - - - 23.6 1017.2 -
20/11:00am SSE 19 21 - - - - - - - 23.5 1017.3 -
20/10:30am SSE 20 25 - - - - - - - 23.3 1017.5 -
20/10:00am SSE 21 24 - - - - - - - 23.3 1017.8 -
20/09:30am SSE 20 23 - - - - - - - 23.2 1017.7 -
20/09:00am SSE 20 23 - - - - - - - 23.1 1017.9 -
20/08:30am SSE 20 23 - - - - - - - 23.1 1017.7 -
20/08:00am SSE 20 24 - - - - - - - 23.0 1017.6 -
20/07:30am SSE 20 23 - - - - - - - 22.9 1017.5 -
20/07:00am SSE 19 24 - - - - - - - 22.9 1017.2 -
20/06:30am SSE 21 25 - - - - - - - 22.8 1017.0 -
20/06:00am SSE 23 27 - - - - - - - 22.8 1016.7 -

Other formats

Comma delimited format used in spreadsheet applications
http://www.bom.gov.au/fwo/IDQ60701/IDQ60701.94379.axf

JavaScript Object Notation format (JSON) in row-major order
http://www.bom.gov.au/fwo/IDQ60701/IDQ60701.94379.json

Data quality

Most of these data are generated automatically and are frequently updated. Quality checks on data are not normally performed. It is possible for incorrect values to appear. Refer to information at About Latest Weather Observations and please check the disclaimer before using these data.